Time;durP1;ratioP1;P1;durP2;ratioP2;P2;SDS_P1;SDS_P2;PMS_P1;PMS_P2;Temp;Humidity;BMP_temperature;BMP_pressure;BME280_temperature;BME280_humidity;BME280_pressure;Samples;Min_cycle;Max_cycle;Signal;HPM_P1;HPM_P2
2023/03/10 00:01:12;;;;;;;3.63;2.27;;;;;;;;;;5076090;28;20471;-70
2023/03/10 00:03:40;;;;;;;3.60;2.43;;;;;;;;;;5075997;28;20480;-70
2023/03/10 00:06:07;;;;;;;3.63;2.50;;;;;;;;;;5075876;28;20444;-70
2023/03/10 00:08:34;;;;;;;2.67;2.10;;;;;;;;;;5075804;28;20451;-70
2023/03/10 00:11:03;;;;;;;2.80;1.90;;;;;;;;;;5075768;28;20467;-70
2023/03/10 00:13:30;;;;;;;4.20;2.60;;;;;;;;;;5075961;28;20460;-70
2023/03/10 00:15:57;;;;;;;3.40;2.20;;;;;;;;;;5075661;28;20487;-70
2023/03/10 00:18:25;;;;;;;2.33;2.03;;;;;;;;;;5075667;28;20455;-70
2023/03/10 00:20:52;;;;;;;2.80;2.03;;;;;;;;;;5075412;28;20476;-70
2023/03/10 00:23:19;;;;;;;3.83;2.17;;;;;;;;;;5075651;28;20459;-70
2023/03/10 00:25:53;;;;;;;5.60;2.20;;;;;;;;;;5075732;28;20936;-70
2023/03/10 00:28:21;;;;;;;4.80;1.87;;;;;;;;;;5075530;28;20447;-70
2023/03/10 00:30:57;;;;;;;5.07;2.00;;;;;;;;;;5075311;28;20475;-70
2023/03/10 00:33:24;;;;;;;2.50;2.00;;;;;;;;;;5075724;28;20432;-70
2023/03/10 00:36:00;;;;;;;3.73;2.77;;;;;;;;;;5075249;28;20853;-70
2023/03/10 00:38:27;;;;;;;3.57;2.47;;;;;;;;;;5075303;28;20447;-70
2023/03/10 00:40:58;;;;;;;5.30;2.00;;;;;;;;;;5075226;28;20467;-71
2023/03/10 00:43:27;;;;;;;3.43;2.80;;;;;;;;;;5075174;28;20452;-70
2023/03/10 00:45:54;;;;;;;9.90;2.47;;;;;;;;;;5075313;28;20452;-70
2023/03/10 00:48:21;;;;;;;2.73;2.00;;;;;;;;;;5075196;28;20452;-70
2023/03/10 00:50:48;;;;;;;4.20;2.17;;;;;;;;;;5075272;28;20874;-70
2023/03/10 00:53:15;;;;;;;5.43;2.30;;;;;;;;;;5075408;28;20462;-70
2023/03/10 00:55:43;;;;;;;4.03;2.30;;;;;;;;;;5075093;28;20844;-70
2023/03/10 00:58:10;;;;;;;2.70;2.03;;;;;;;;;;5075024;28;20545;-70
2023/03/10 01:00:38;;;;;;;2.37;1.93;;;;;;;;;;5074874;28;20850;-70
2023/03/10 01:03:05;;;;;;;8.70;2.17;;;;;;;;;;5074937;28;20447;-70
2023/03/10 01:05:32;;;;;;;2.50;1.60;;;;;;;;;;5073978;28;20458;-71
2023/03/10 01:07:59;;;;;;;2.07;1.50;;;;;;;;;;5074803;28;20822;-70
2023/03/10 01:10:26;;;;;;;6.03;2.87;;;;;;;;;;5074935;28;20472;-70
2023/03/10 01:12:54;;;;;;;7.73;4.13;;;;;;;;;;5074795;28;20459;-70
2023/03/10 01:15:21;;;;;;;9.90;2.63;;;;;;;;;;5074303;28;20487;-70
2023/03/10 01:17:49;;;;;;;3.70;2.40;;;;;;;;;;5074777;28;20948;-70
2023/03/10 01:20:17;;;;;;;5.17;2.30;;;;;;;;;;5074522;28;20468;-70
2023/03/10 01:22:45;;;;;;;4.27;2.37;;;;;;;;;;5074470;28;20828;-70
2023/03/10 01:25:15;;;;;;;3.63;2.37;;;;;;;;;;5074422;28;20941;-70
2023/03/10 01:27:43;;;;;;;5.93;2.17;;;;;;;;;;5074269;28;20455;-70
2023/03/10 01:30:10;;;;;;;5.23;2.50;;;;;;;;;;5074175;28;20474;-70
2023/03/10 01:32:38;;;;;;;4.57;2.27;;;;;;;;;;5074149;28;20452;-70
2023/03/10 01:35:06;;;;;;;2.10;1.53;;;;;;;;;;5074396;28;20480;-70
2023/03/10 01:37:34;;;;;;;4.63;1.60;;;;;;;;;;5074074;28;20821;-70
2023/03/10 01:40:03;;;;;;;6.70;2.30;;;;;;;;;;5074225;28;20474;-70
2023/03/10 01:42:31;;;;;;;3.63;2.20;;;;;;;;;;5074016;28;20455;-70
2023/03/10 01:45:05;;;;;;;3.33;2.53;;;;;;;;;;5073901;28;20452;-70
2023/03/10 01:47:32;;;;;;;4.80;1.50;;;;;;;;;;5074113;28;20459;-70
2023/03/10 01:49:59;;;;;;;3.50;2.33;;;;;;;;;;5073948;28;20502;-70
2023/03/10 01:52:29;;;;;;;4.40;3.40;;;;;;;;;;5073691;28;20447;-70
2023/03/10 01:54:59;;;;;;;4.30;2.03;;;;;;;;;;5073613;28;20495;-70
2023/03/10 01:57:28;;;;;;;3.67;1.63;;;;;;;;;;5073538;28;20506;-70
2023/03/10 01:59:56;;;;;;;4.17;1.90;;;;;;;;;;5073634;28;20812;-70
2023/03/10 02:02:23;;;;;;;4.10;2.20;;;;;;;;;;5073507;28;20459;-70
2023/03/10 02:04:51;;;;;;;3.07;1.80;;;;;;;;;;5073340;28;20796;-70
2023/03/10 02:07:19;;;;;;;3.20;2.17;;;;;;;;;;5073340;28;20459;-70
2023/03/10 02:09:49;;;;;;;3.00;1.83;;;;;;;;;;5073503;28;20444;-70
2023/03/10 02:12:17;;;;;;;2.20;1.90;;;;;;;;;;5073944;28;20451;-70
2023/03/10 02:14:45;;;;;;;2.97;2.30;;;;;;;;;;5073159;28;20451;-70
2023/03/10 02:17:15;;;;;;;5.10;1.83;;;;;;;;;;5072413;28;20937;-70
2023/03/10 02:19:51;;;;;;;3.23;1.70;;;;;;;;;;5073492;28;20459;-70
2023/03/10 02:22:18;;;;;;;3.50;1.80;;;;;;;;;;5073552;28;20455;-70
2023/03/10 02:24:50;;;;;;;2.03;1.60;;;;;;;;;;5073520;28;20452;-70
2023/03/10 02:27:21;;;;;;;1.93;1.70;;;;;;;;;;5073277;28;20899;-70
2023/03/10 02:29:51;;;;;;;4.00;1.70;;;;;;;;;;5073399;28;20443;-70
2023/03/10 02:32:19;;;;;;;2.47;2.00;;;;;;;;;;5073256;28;20459;-70
2023/03/10 02:34:46;;;;;;;2.80;1.83;;;;;;;;;;5073185;28;20826;-70
2023/03/10 02:37:20;;;;;;;2.10;1.70;;;;;;;;;;5073050;28;20514;-70
2023/03/10 02:39:47;;;;;;;2.70;2.10;;;;;;;;;;5073331;28;20975;-70
2023/03/10 02:42:15;;;;;;;1.70;1.60;;;;;;;;;;5072943;28;20460;-70
2023/03/10 02:44:43;;;;;;;2.33;2.13;;;;;;;;;;5073647;28;20494;-70
2023/03/10 02:47:11;;;;;;;5.43;2.43;;;;;;;;;;5073079;28;20452;-70
2023/03/10 02:49:39;;;;;;;3.43;2.40;;;;;;;;;;5073361;28;20439;-70
2023/03/10 02:52:08;;;;;;;2.53;1.67;;;;;;;;;;5073000;28;20446;-70
2023/03/10 02:54:35;;;;;;;2.37;1.80;;;;;;;;;;5073209;28;20462;-70
2023/03/10 02:57:02;;;;;;;4.53;2.53;;;;;;;;;;5073130;28;20491;-70
2023/03/10 02:59:29;;;;;;;2.10;1.70;;;;;;;;;;5073091;28;20448;-70
2023/03/10 03:01:57;;;;;;;2.80;1.90;;;;;;;;;;5072998;28;20487;-70
2023/03/10 03:04:25;;;;;;;4.90;2.80;;;;;;;;;;5072809;28;20807;-70
2023/03/10 03:06:52;;;;;;;2.57;1.90;;;;;;;;;;5073236;28;20436;-70
2023/03/10 03:09:19;;;;;;;3.87;2.30;;;;;;;;;;5072772;28;20509;-70
2023/03/10 03:11:46;;;;;;;2.00;1.60;;;;;;;;;;5072903;28;20476;-70
2023/03/10 03:14:13;;;;;;;3.30;1.87;;;;;;;;;;5072918;28;20456;-70
2023/03/10 03:16:40;;;;;;;1.97;1.50;;;;;;;;;;5072799;28;20480;-71
2023/03/10 03:19:09;;;;;;;2.10;1.70;;;;;;;;;;5072814;28;20458;-71
2023/03/10 03:21:36;;;;;;;2.23;1.70;;;;;;;;;;5072807;28;20803;-70
2023/03/10 03:24:03;;;;;;;3.00;2.03;;;;;;;;;;5072828;28;20452;-70
2023/03/10 03:26:31;;;;;;;4.10;2.50;;;;;;;;;;5072744;28;20458;-70
2023/03/10 03:28:58;;;;;;;4.40;3.50;;;;;;;;;;5076644;28;20458;-70
2023/03/10 03:31:26;;;;;;;15.80;7.73;;;;;;;;;;5076446;28;20475;-70
2023/03/10 03:33:53;;;;;;;9.00;5.77;;;;;;;;;;5076506;28;20448;-70
2023/03/10 03:36:21;;;;;;;13.47;3.27;;;;;;;;;;5076174;28;20490;-70
2023/03/10 03:38:49;;;;;;;3.73;2.80;;;;;;;;;;5076790;28;20932;-70
2023/03/10 03:41:16;;;;;;;4.93;3.03;;;;;;;;;;5076605;28;20478;-70
2023/03/10 03:43:43;;;;;;;7.70;3.50;;;;;;;;;;5076323;28;20450;-70
2023/03/10 03:46:10;;;;;;;6.23;3.50;;;;;;;;;;5076353;28;20448;-70
2023/03/10 03:48:37;;;;;;;3.70;2.37;;;;;;;;;;5076527;28;20808;-70
2023/03/10 03:51:04;;;;;;;2.93;2.10;;;;;;;;;;5076133;28;20472;-70
2023/03/10 03:53:33;;;;;;;3.40;2.70;;;;;;;;;;5076187;28;20443;-70
2023/03/10 03:56:00;;;;;;;2.80;1.70;;;;;;;;;;5076175;28;21021;-70
2023/03/10 03:58:27;;;;;;;2.43;1.60;;;;;;;;;;5076422;28;20912;-70
2023/03/10 04:00:54;;;;;;;2.43;2.00;;;;;;;;;;5075959;28;20478;-70
2023/03/10 04:03:21;;;;;;;3.37;1.93;;;;;;;;;;5076198;28;20450;-70
2023/03/10 04:05:48;;;;;;;3.60;1.70;;;;;;;;;;5076124;28;20452;-70
2023/03/10 04:08:16;;;;;;;8.50;2.40;;;;;;;;;;5076291;28;20435;-70
2023/03/10 04:10:50;;;;;;;3.17;2.00;;;;;;;;;;5075954;28;20816;-70
2023/03/10 04:13:17;;;;;;;3.10;2.20;;;;;;;;;;5075811;28;20820;-70
2023/03/10 04:15:44;;;;;;;3.30;2.20;;;;;;;;;;5075890;28;20490;-70
2023/03/10 04:18:11;;;;;;;2.30;1.73;;;;;;;;;;5075635;28;20460;-70
2023/03/10 04:20:38;;;;;;;4.67;2.60;;;;;;;;;;5075868;28;20999;-70
2023/03/10 04:23:06;;;;;;;4.13;2.73;;;;;;;;;;5075680;28;20459;-70
2023/03/10 04:25:33;;;;;;;2.70;1.97;;;;;;;;;;5075843;28;20482;-70
2023/03/10 04:28:01;;;;;;;3.67;2.10;;;;;;;;;;5075492;28;20455;-70
2023/03/10 04:30:28;;;;;;;2.13;1.60;;;;;;;;;;5075557;28;20487;-70
2023/03/10 04:32:57;;;;;;;2.10;1.70;;;;;;;;;;5075360;28;20455;-70
2023/03/10 04:35:24;;;;;;;2.20;1.50;;;;;;;;;;5075691;28;20822;-70
2023/03/10 04:37:51;;;;;;;3.30;2.53;;;;;;;;;;5075354;28;20857;-70
2023/03/10 04:40:19;;;;;;;2.00;1.70;;;;;;;;;;5074571;28;20483;-70
2023/03/10 04:42:46;;;;;;;3.93;2.00;;;;;;;;;;5075535;28;20447;-70
2023/03/10 04:45:14;;;;;;;1.87;1.60;;;;;;;;;;5075285;28;20455;-70
2023/03/10 04:47:41;;;;;;;2.20;1.77;;;;;;;;;;5075356;28;20455;-70
2023/03/10 04:50:09;;;;;;;3.60;2.00;;;;;;;;;;5074968;28;20494;-70
2023/03/10 04:52:36;;;;;;;4.87;3.37;;;;;;;;;;5075175;28;20448;-70
2023/03/10 04:55:04;;;;;;;4.30;3.40;;;;;;;;;;5075285;28;20448;-70
2023/03/10 04:57:31;;;;;;;4.83;3.10;;;;;;;;;;5075267;28;20843;-70
2023/03/10 04:59:58;;;;;;;4.90;2.00;;;;;;;;;;5074948;28;20451;-70
2023/03/10 05:02:26;;;;;;;3.10;2.00;;;;;;;;;;5075184;28;20456;-70
2023/03/10 05:04:53;;;;;;;10.47;2.13;;;;;;;;;;5074916;28;20463;-70
2023/03/10 05:07:21;;;;;;;2.10;1.73;;;;;;;;;;5075281;28;20448;-70
2023/03/10 05:09:48;;;;;;;5.10;2.43;;;;;;;;;;5075023;28;20456;-70
2023/03/10 05:12:15;;;;;;;3.93;2.70;;;;;;;;;;5074933;28;20460;-70
2023/03/10 05:14:42;;;;;;;2.80;2.30;;;;;;;;;;5074973;28;20451;-70
2023/03/10 05:17:09;;;;;;;2.80;2.40;;;;;;;;;;5074771;28;20490;-70
2023/03/10 05:19:38;;;;;;;3.93;2.07;;;;;;;;;;5074590;28;20447;-70
2023/03/10 05:22:06;;;;;;;2.63;2.23;;;;;;;;;;5074463;28;20482;-70
2023/03/10 05:24:34;;;;;;;3.17;2.33;;;;;;;;;;5074532;28;20459;-70
2023/03/10 05:27:02;;;;;;;5.77;2.57;;;;;;;;;;5074820;28;20937;-70
2023/03/10 05:29:29;;;;;;;2.73;2.30;;;;;;;;;;5074699;28;20486;-70
2023/03/10 05:31:56;;;;;;;6.70;3.10;;;;;;;;;;5074521;28;20960;-70
2023/03/10 05:34:25;;;;;;;4.63;2.47;;;;;;;;;;5074278;28;20448;-70
2023/03/10 05:36:55;;;;;;;2.87;1.67;;;;;;;;;;5074070;28;20491;-70
2023/03/10 05:39:22;;;;;;;2.43;1.50;;;;;;;;;;5074421;28;20509;-70
2023/03/10 05:41:49;;;;;;;3.20;1.77;;;;;;;;;;5074211;28;20479;-70
2023/03/10 05:44:16;;;;;;;2.03;1.60;;;;;;;;;;5074164;28;20462;-70
2023/03/10 05:46:43;;;;;;;3.00;1.50;;;;;;;;;;5074012;28;20510;-70
2023/03/10 05:49:10;;;;;;;2.00;1.47;;;;;;;;;;5074281;28;20941;-70
2023/03/10 05:51:37;;;;;;;3.00;2.20;;;;;;;;;;5073882;28;20495;-70
2023/03/10 05:54:08;;;;;;;6.60;2.50;;;;;;;;;;5073799;28;20452;-70
2023/03/10 05:56:35;;;;;;;3.57;1.70;;;;;;;;;;5073947;28;20484;-70
2023/03/10 05:59:02;;;;;;;4.87;2.03;;;;;;;;;;5074097;28;20455;-71
2023/03/10 06:01:29;;;;;;;2.00;1.60;;;;;;;;;;5073729;28;20468;-70
2023/03/10 06:03:56;;;;;;;4.50;2.30;;;;;;;;;;5073655;28;20463;-70
2023/03/10 06:06:23;;;;;;;3.93;2.23;;;;;;;;;;5073446;28;20464;-70
2023/03/10 06:08:50;;;;;;;5.73;2.33;;;;;;;;;;5073843;28;20471;-70
2023/03/10 06:11:19;;;;;;;2.53;1.80;;;;;;;;;;5073634;28;20471;-70
2023/03/10 06:13:46;;;;;;;3.40;2.83;;;;;;;;;;5073425;28;20494;-70
2023/03/10 06:16:13;;;;;;;4.37;2.20;;;;;;;;;;5073712;28;21051;-70
2023/03/10 06:18:40;;;;;;;4.00;2.40;;;;;;;;;;5073744;28;20443;-70
2023/03/10 06:21:08;;;;;;;3.50;2.77;;;;;;;;;;5073365;28;20475;-70
2023/03/10 06:23:37;;;;;;;4.13;2.87;;;;;;;;;;5073546;28;20936;-70
2023/03/10 06:26:05;;;;;;;8.47;2.93;;;;;;;;;;5073532;28;20448;-70
2023/03/10 06:28:35;;;;;;;4.60;3.87;;;;;;;;;;5073676;28;20498;-70
2023/03/10 06:31:04;;;;;;;4.60;3.33;;;;;;;;;;5073296;28;20474;-70
2023/03/10 06:33:31;;;;;;;5.30;3.97;;;;;;;;;;5072996;28;20815;-70
2023/03/10 06:35:59;;;;;;;7.63;3.93;;;;;;;;;;5086811;28;20442;-70
2023/03/10 06:38:26;;;;;;;4.30;3.90;;;;;;;;;;5093523;28;21018;-70
2023/03/10 06:40:53;;;;;;;64.17;41.43;;;;;;;;;;5093158;28;20471;-70
2023/03/10 06:43:20;;;;;;;18.57;14.57;;;;;;;;;;5093651;28;20851;-70
2023/03/10 06:45:49;;;;;;;8.97;5.97;;;;;;;;;;5093588;28;20447;-70
2023/03/10 06:48:16;;;;;;;7.30;5.37;;;;;;;;;;5093592;28;20447;-70
2023/03/10 06:50:46;;;;;;;5.77;3.30;;;;;;;;;;5093473;28;20475;-70
2023/03/10 06:53:14;;;;;;;6.90;3.80;;;;;;;;;;5093571;28;20554;-70
2023/03/10 06:55:41;;;;;;;6.40;4.53;;;;;;;;;;5093154;28;20457;-70
2023/03/10 06:58:08;;;;;;;10.80;7.50;;;;;;;;;;5093422;28;20482;-70
2023/03/10 07:00:35;;;;;;;16.00;10.77;;;;;;;;;;5093346;28;20467;-70
2023/03/10 07:03:04;;;;;;;38.60;18.93;;;;;;;;;;5092516;28;20458;-70
2023/03/10 07:05:31;;;;;;;30.53;15.77;;;;;;;;;;5092899;28;20451;-70
2023/03/10 07:07:58;;;;;;;20.33;9.77;;;;;;;;;;5092448;28;20439;-70
2023/03/10 07:10:25;;;;;;;19.53;9.47;;;;;;;;;;5091766;28;20971;-70
2023/03/10 07:12:57;;;;;;;12.20;7.83;;;;;;;;;;5092198;28;20432;-70
2023/03/10 07:15:25;;;;;;;16.20;9.87;;;;;;;;;;5091975;28;20445;-70
2023/03/10 07:17:54;;;;;;;14.60;8.67;;;;;;;;;;5091691;28;20497;-70
2023/03/10 07:20:23;;;;;;;10.00;7.60;;;;;;;;;;5091543;28;20478;-70
2023/03/10 07:22:50;;;;;;;8.90;5.90;;;;;;;;;;5091863;28;20890;-70
2023/03/10 07:25:17;;;;;;;237.93;99.27;;;;;;;;;;5091497;28;20947;-70
2023/03/10 07:27:45;;;;;;;47.73;23.13;;;;;;;;;;5091965;28;20453;-70
2023/03/10 07:30:12;;;;;;;11.87;5.80;;;;;;;;;;5093574;28;20466;-70
2023/03/10 07:32:39;;;;;;;5.40;3.67;;;;;;;;;;5092024;28;20447;-70
2023/03/10 07:35:07;;;;;;;6.73;4.03;;;;;;;;;;5092869;28;20451;-70
2023/03/10 07:37:37;;;;;;;4.50;3.07;;;;;;;;;;5092159;28;20491;-70
2023/03/10 07:40:05;;;;;;;4.13;2.70;;;;;;;;;;5092179;28;20463;-70
2023/03/10 07:42:32;;;;;;;4.40;2.83;;;;;;;;;;5091520;28;20451;-70
2023/03/10 07:44:59;;;;;;;3.80;2.40;;;;;;;;;;5091313;28;20451;-70
2023/03/10 07:47:27;;;;;;;2.83;2.13;;;;;;;;;;5091811;28;20496;-70
2023/03/10 07:49:54;;;;;;;4.93;2.73;;;;;;;;;;5091461;28;20455;-70
2023/03/10 07:52:21;;;;;;;5.53;3.40;;;;;;;;;;5091557;28;20672;-70
2023/03/10 07:54:50;;;;;;;7.10;3.33;;;;;;;;;;5091657;28;20490;-70
2023/03/10 07:57:17;;;;;;;10.70;6.70;;;;;;;;;;5091587;28;21107;-70
2023/03/10 07:59:44;;;;;;;3.33;2.60;;;;;;;;;;5091564;28;20951;-70
2023/03/10 08:02:12;;;;;;;7.77;3.23;;;;;;;;;;5091324;28;20490;-70
2023/03/10 08:04:39;;;;;;;4.43;2.90;;;;;;;;;;5091203;28;20454;-70
2023/03/10 08:07:07;;;;;;;10.83;3.60;;;;;;;;;;5091204;28;20944;-70
2023/03/10 08:09:34;;;;;;;4.57;2.47;;;;;;;;;;5091416;28;20447;-70
2023/03/10 08:12:03;;;;;;;2.90;2.60;;;;;;;;;;5092014;28;20466;-71
2023/03/10 08:14:30;;;;;;;3.60;2.93;;;;;;;;;;5093023;28;20446;-70
2023/03/10 08:16:57;;;;;;;5.63;2.40;;;;;;;;;;5095318;28;21177;-70
2023/03/10 08:19:25;;;;;;;3.20;2.40;;;;;;;;;;5096597;28;20446;-70
2023/03/10 08:21:54;;;;;;;5.83;3.43;;;;;;;;;;5096255;28;20934;-70
2023/03/10 08:24:22;;;;;;;3.83;2.50;;;;;;;;;;5096670;28;20897;-70
2023/03/10 08:26:49;;;;;;;5.87;3.00;;;;;;;;;;5097306;28;20446;-70
2023/03/10 08:29:18;;;;;;;4.13;2.77;;;;;;;;;;5096071;28;20446;-70
2023/03/10 08:31:45;;;;;;;3.20;2.00;;;;;;;;;;5096386;28;20477;-70
2023/03/10 08:34:12;;;;;;;3.60;2.30;;;;;;;;;;5096048;28;20451;-70
2023/03/10 08:36:40;;;;;;;3.63;1.70;;;;;;;;;;5095609;28;20469;-70
2023/03/10 08:39:07;;;;;;;2.40;1.80;;;;;;;;;;5095757;28;20497;-70
2023/03/10 08:41:35;;;;;;;5.07;2.57;;;;;;;;;;5095653;28;20463;-70
2023/03/10 08:44:02;;;;;;;3.57;2.77;;;;;;;;;;5095176;28;20446;-70
2023/03/10 08:46:31;;;;;;;4.97;3.00;;;;;;;;;;5095448;28;20459;-70
2023/03/10 08:48:59;;;;;;;5.83;2.37;;;;;;;;;;5095693;28;20508;-70
2023/03/10 08:51:26;;;;;;;4.13;2.27;;;;;;;;;;5095275;28;20473;-70
2023/03/10 08:53:53;;;;;;;3.00;2.13;;;;;;;;;;5095330;28;20457;-70
2023/03/10 08:56:21;;;;;;;4.67;1.90;;;;;;;;;;5095576;28;20450;-71
2023/03/10 08:58:49;;;;;;;7.53;2.00;;;;;;;;;;5095273;28;20486;-70
2023/03/10 09:01:17;;;;;;;4.03;2.23;;;;;;;;;;5095019;28;21052;-70
2023/03/10 09:03:46;;;;;;;3.50;2.50;;;;;;;;;;5095464;28;20442;-70
2023/03/10 09:06:14;;;;;;;3.87;3.03;;;;;;;;;;5095314;28;20824;-70
2023/03/10 09:08:41;;;;;;;5.10;2.17;;;;;;;;;;5095168;28;20442;-71
2023/03/10 09:11:08;;;;;;;3.40;2.30;;;;;;;;;;5094894;28;20478;-71
2023/03/10 09:13:35;;;;;;;10.33;8.33;;;;;;;;;;5094935;28;20446;-71
2023/03/10 09:16:02;;;;;;;8.63;3.80;;;;;;;;;;5095190;28;20461;-71
2023/03/10 09:18:29;;;;;;;5.50;4.53;;;;;;;;;;5094923;28;20487;-70
2023/03/10 09:20:58;;;;;;;7.80;4.80;;;;;;;;;;5094916;28;20475;-70
2023/03/10 09:23:25;;;;;;;16.87;6.80;;;;;;;;;;5095078;28;20814;-70
2023/03/10 09:25:52;;;;;;;5.97;4.07;;;;;;;;;;5094614;28;20466;-70
2023/03/10 09:28:20;;;;;;;9.17;4.23;;;;;;;;;;5094633;28;20454;-70
2023/03/10 09:30:49;;;;;;;6.07;3.13;;;;;;;;;;5094554;28;20470;-71
2023/03/10 09:33:17;;;;;;;6.33;2.93;;;;;;;;;;5093062;28;20547;-70
2023/03/10 09:35:44;;;;;;;9.00;5.63;;;;;;;;;;5093144;28;20435;-71
2023/03/10 09:38:13;;;;;;;5.30;3.70;;;;;;;;;;5093146;28;20471;-70
2023/03/10 09:40:43;;;;;;;5.03;4.00;;;;;;;;;;5093361;28;20470;-70
2023/03/10 09:43:14;;;;;;;6.67;4.40;;;;;;;;;;5093130;28;20465;-70
2023/03/10 09:45:44;;;;;;;4.60;3.30;;;;;;;;;;5093299;28;20459;-70
2023/03/10 09:48:16;;;;;;;5.00;2.90;;;;;;;;;;5093658;28;20442;-70
2023/03/10 09:50:45;;;;;;;5.73;2.53;;;;;;;;;;5092711;28;20998;-71
2023/03/10 09:53:28;;;;;;;6.17;2.73;;;;;;;;;;5092980;28;20442;-71
2023/03/10 09:55:55;;;;;;;4.20;3.13;;;;;;;;;;5093138;28;20890;-71
2023/03/10 09:58:29;;;;;;;4.27;2.47;;;;;;;;;;5092758;28;20906;-71
2023/03/10 10:00:56;;;;;;;4.27;2.47;;;;;;;;;;5092778;28;20474;-73
2023/03/10 10:03:24;;;;;;;3.83;2.97;;;;;;;;;;5093223;28;20799;-73
2023/03/10 10:05:54;;;;;;;5.37;2.43;;;;;;;;;;5092633;28;20451;-73
2023/03/10 10:08:22;;;;;;;2.20;1.70;;;;;;;;;;5092881;28;20438;-73
2023/03/10 10:10:52;;;;;;;4.17;1.97;;;;;;;;;;5093299;28;20521;-73
2023/03/10 10:13:21;;;;;;;9.00;3.50;;;;;;;;;;5092998;28;20971;-75
2023/03/10 10:15:52;;;;;;;3.97;1.70;;;;;;;;;;5093532;28;20465;-77
2023/03/10 10:18:25;;;;;;;3.93;2.37;;;;;;;;;;5093592;28;20483;-74
2023/03/10 10:20:57;;;;;;;3.73;1.60;;;;;;;;;;5093612;28;21021;-78
2023/03/10 10:23:25;;;;;;;3.10;2.10;;;;;;;;;;5093464;28;20458;-78
2023/03/10 10:25:55;;;;;;;6.60;2.40;;;;;;;;;;5094944;28;20939;-74
2023/03/10 10:28:26;;;;;;;2.93;1.83;;;;;;;;;;5093492;28;20462;-74
2023/03/10 10:30:53;;;;;;;4.53;1.87;;;;;;;;;;5093673;28;20462;-74
2023/03/10 10:33:20;;;;;;;3.67;2.50;;;;;;;;;;5093115;28;20461;-75
2023/03/10 10:36:00;;;;;;;2.53;1.87;;;;;;;;;;5092453;28;20459;-74
2023/03/10 10:38:28;;;;;;;2.20;1.70;;;;;;;;;;5092488;28;20477;-74
2023/03/10 10:41:00;;;;;;;3.73;1.90;;;;;;;;;;5093371;28;20551;-74
2023/03/10 10:43:27;;;;;;;4.07;1.90;;;;;;;;;;5093728;28;20435;-74
2023/03/10 10:45:55;;;;;;;2.33;1.67;;;;;;;;;;5093733;28;20471;-74
2023/03/10 10:48:32;;;;;;;6.83;2.20;;;;;;;;;;5093415;28;20447;-72
2023/03/10 10:50:59;;;;;;;4.33;2.30;;;;;;;;;;5093582;28;20462;-72
2023/03/10 10:53:32;;;;;;;6.17;3.20;;;;;;;;;;5093616;28;20904;-74
2023/03/10 10:56:02;;;;;;;4.20;2.00;;;;;;;;;;5093569;28;20438;-75
2023/03/10 10:58:31;;;;;;;3.40;2.10;;;;;;;;;;5093423;28;20490;-74
2023/03/10 11:00:59;;;;;;;2.50;1.83;;;;;;;;;;5093451;28;20466;-75
2023/03/10 11:03:27;;;;;;;3.30;1.90;;;;;;;;;;5093395;28;20451;-75
2023/03/10 11:05:55;;;;;;;3.73;2.87;;;;;;;;;;5093508;28;20455;-75
2023/03/10 11:08:29;;;;;;;3.20;1.90;;;;;;;;;;5093274;28;20434;-75
2023/03/10 11:10:59;;;;;;;2.90;1.77;;;;;;;;;;5093067;28;20497;-75
2023/03/10 11:13:30;;;;;;;3.63;1.70;;;;;;;;;;5093481;28;20897;-76
2023/03/10 11:16:00;;;;;;;6.73;2.47;;;;;;;;;;5093233;28;20446;-75
2023/03/10 11:18:30;;;;;;;5.50;2.30;;;;;;;;;;5093323;28;20967;-75
2023/03/10 11:21:01;;;;;;;4.67;2.07;;;;;;;;;;5092926;28;20463;-75
2023/03/10 11:23:31;;;;;;;3.60;2.00;;;;;;;;;;5093271;28;20458;-75
2023/03/10 11:26:01;;;;;;;2.70;1.90;;;;;;;;;;5093016;28;20442;-75
2023/03/10 11:28:37;;;;;;;2.60;1.90;;;;;;;;;;5093256;28;20435;-75
2023/03/10 11:31:11;;;;;;;3.17;1.87;;;;;;;;;;5092835;28;20477;-75
2023/03/10 11:33:42;;;;;;;3.97;1.87;;;;;;;;;;5093931;28;20438;-76
2023/03/10 11:36:15;;;;;;;3.50;2.40;;;;;;;;;;5092699;28;20462;-75
2023/03/10 11:38:44;;;;;;;4.40;1.53;;;;;;;;;;5093061;28;20556;-75
2023/03/10 11:41:11;;;;;;;3.67;2.20;;;;;;;;;;5093070;28;20471;-75
2023/03/10 11:43:47;;;;;;;5.43;2.67;;;;;;;;;;5093023;28;20939;-75
2023/03/10 11:46:17;;;;;;;2.70;2.27;;;;;;;;;;5092786;28;20430;-75
2023/03/10 11:48:48;;;;;;;2.27;2.07;;;;;;;;;;5094680;28;20431;-75
2023/03/10 11:51:19;;;;;;;3.10;2.40;;;;;;;;;;5096581;28;20470;-75
2023/03/10 11:53:48;;;;;;;3.87;1.90;;;;;;;;;;5096910;28;20431;-75
2023/03/10 11:56:17;;;;;;;2.20;1.90;;;;;;;;;;5096712;28;20490;-75
2023/03/10 11:58:48;;;;;;;5.70;2.60;;;;;;;;;;5096616;28;20482;-75
2023/03/10 12:01:16;;;;;;;2.53;1.77;;;;;;;;;;5096779;28;20850;-71
2023/03/10 12:03:47;;;;;;;3.67;1.33;;;;;;;;;;5096388;28;20458;-71
2023/03/10 12:06:18;;;;;;;4.00;1.90;;;;;;;;;;5096044;28;20431;-72
2023/03/10 12:08:45;;;;;;;3.63;1.53;;;;;;;;;;5096133;28;20859;-72
2023/03/10 12:11:15;;;;;;;1.70;0.93;;;;;;;;;;5096012;28;20466;-72
2023/03/10 12:13:44;;;;;;;1.63;0.93;;;;;;;;;;5096189;28;20462;-72
2023/03/10 12:16:14;;;;;;;2.80;1.07;;;;;;;;;;5095909;28;20951;-73
2023/03/10 12:18:41;;;;;;;2.03;1.10;;;;;;;;;;5095974;28;20486;-72
2023/03/10 12:21:13;;;;;;;1.80;1.10;;;;;;;;;;5095785;28;20463;-72
2023/03/10 12:23:41;;;;;;;2.00;1.37;;;;;;;;;;5095690;28;20450;-72
2023/03/10 12:26:08;;;;;;;7.33;1.70;;;;;;;;;;5095762;28;20499;-72
2023/03/10 12:28:35;;;;;;;4.00;2.00;;;;;;;;;;5095836;28;20454;-73
2023/03/10 12:31:02;;;;;;;3.73;2.83;;;;;;;;;;5095792;28;20994;-73
2023/03/10 12:33:41;;;;;;;6.40;3.13;;;;;;;;;;5095849;28;20459;-73
2023/03/10 12:36:10;;;;;;;4.97;2.80;;;;;;;;;;5095404;28;20505;-72
2023/03/10 12:38:42;;;;;;;6.40;3.60;;;;;;;;;;5095520;28;20552;-73
2023/03/10 12:41:09;;;;;;;4.20;2.80;;;;;;;;;;5095474;28;20471;-73
2023/03/10 12:44:03;;;;;;;6.37;3.20;;;;;;;;;;5095452;28;20450;-73
2023/03/10 12:46:41;;;;;;;11.63;5.43;;;;;;;;;;5095376;28;20459;-73
2023/03/10 12:49:17;;;;;;;8.77;5.10;;;;;;;;;;5095446;28;20438;-73
2023/03/10 12:51:47;;;;;;;8.80;3.50;;;;;;;;;;5095437;28;20495;-73
2023/03/10 12:54:22;;;;;;;9.07;3.57;;;;;;;;;;5095204;28;20940;-73
2023/03/10 12:56:50;;;;;;;4.23;2.07;;;;;;;;;;5095225;28;20446;-73
2023/03/10 12:59:21;;;;;;;4.00;2.67;;;;;;;;;;5095009;28;21029;-73
2023/03/10 13:01:50;;;;;;;4.70;2.60;;;;;;;;;;5094794;28;20466;-73
2023/03/10 13:04:20;;;;;;;3.83;2.30;;;;;;;;;;5094843;28;20458;-73
2023/03/10 13:06:48;;;;;;;2.10;1.50;;;;;;;;;;5095247;28;20940;-73
2023/03/10 13:09:22;;;;;;;6.20;3.00;;;;;;;;;;5094686;28;20446;-73
2023/03/10 13:11:51;;;;;;;6.77;3.50;;;;;;;;;;5095223;28;20975;-73
2023/03/10 13:14:19;;;;;;;3.97;2.00;;;;;;;;;;5094827;28;20450;-73
2023/03/10 13:16:53;;;;;;;3.50;1.93;;;;;;;;;;5094917;28;20967;-73
2023/03/10 13:19:22;;;;;;;3.57;1.87;;;;;;;;;;5094292;28;20486;-73
2023/03/10 13:21:49;;;;;;;2.00;1.10;;;;;;;;;;5094512;28;20474;-73
2023/03/10 13:24:22;;;;;;;1.50;1.00;;;;;;;;;;5094477;28;20837;-73
2023/03/10 13:26:49;;;;;;;1.40;0.90;;;;;;;;;;5094865;28;20447;-73
2023/03/10 13:29:17;;;;;;;2.63;1.20;;;;;;;;;;5094647;28;20473;-73
2023/03/10 13:31:52;;;;;;;1.60;1.13;;;;;;;;;;5094523;28;20512;-73
2023/03/10 13:34:20;;;;;;;3.20;1.17;;;;;;;;;;5094190;28;20446;-73
2023/03/10 13:36:49;;;;;;;2.20;1.00;;;;;;;;;;5094672;28;20944;-73
2023/03/10 13:39:16;;;;;;;2.40;1.40;;;;;;;;;;5094435;28;20497;-73
2023/03/10 13:41:45;;;;;;;1.70;1.40;;;;;;;;;;5094309;28;20561;-73
2023/03/10 13:44:16;;;;;;;1.87;1.30;;;;;;;;;;5094265;28;20529;-73
2023/03/10 13:46:47;;;;;;;2.30;1.27;;;;;;;;;;5094523;28;20454;-73
2023/03/10 13:49:16;;;;;;;2.30;1.50;;;;;;;;;;5094393;28;20792;-73
2023/03/10 13:51:52;;;;;;;3.30;1.63;;;;;;;;;;5094181;28;20472;-73
2023/03/10 13:54:22;;;;;;;2.50;1.50;;;;;;;;;;5094495;28;20434;-73
2023/03/10 13:56:50;;;;;;;2.90;1.13;;;;;;;;;;5094510;28;20439;-73
2023/03/10 13:59:20;;;;;;;3.00;1.30;;;;;;;;;;5093872;28;20999;-73
2023/03/10 14:01:49;;;;;;;2.10;1.30;;;;;;;;;;5094320;28;20963;-73
2023/03/10 14:04:18;;;;;;;4.43;1.43;;;;;;;;;;5093742;28;20503;-73
2023/03/10 14:06:45;;;;;;;2.60;1.50;;;;;;;;;;5094145;28;20971;-73
2023/03/10 14:09:14;;;;;;;3.87;1.33;;;;;;;;;;5094178;28;20433;-73
2023/03/10 14:11:43;;;;;;;1.70;1.30;;;;;;;;;;5093778;28;20979;-73
2023/03/10 14:14:11;;;;;;;2.07;1.43;;;;;;;;;;5093767;28;20807;-73
2023/03/10 14:16:44;;;;;;;4.70;1.10;;;;;;;;;;5093680;28;20461;-73
2023/03/10 14:19:12;;;;;;;1.90;1.30;;;;;;;;;;5094932;28;20494;-73
2023/03/10 14:21:39;;;;;;;2.80;1.30;;;;;;;;;;5093868;28;20833;-73
2023/03/10 14:24:08;;;;;;;1.40;0.90;;;;;;;;;;5093568;28;20528;-72
2023/03/10 14:26:35;;;;;;;1.50;0.90;;;;;;;;;;5093715;28;20955;-72
2023/03/10 14:29:06;;;;;;;1.20;0.70;;;;;;;;;;5093627;28;20450;-72
2023/03/10 14:31:33;;;;;;;1.20;0.80;;;;;;;;;;5093381;28;20975;-73
2023/03/10 14:34:01;;;;;;;1.40;1.00;;;;;;;;;;5093551;28;20796;-73
2023/03/10 14:36:28;;;;;;;1.40;0.90;;;;;;;;;;5093590;28;20458;-72
2023/03/10 14:38:55;;;;;;;1.80;0.97;;;;;;;;;;5093432;28;20453;-72
2023/03/10 14:41:23;;;;;;;1.60;1.00;;;;;;;;;;5093153;28;20550;-72
2023/03/10 14:43:51;;;;;;;1.20;0.70;;;;;;;;;;5093226;28;20838;-72
2023/03/10 14:46:19;;;;;;;1.50;0.90;;;;;;;;;;5093335;28;20462;-72
2023/03/10 14:48:46;;;;;;;1.70;0.90;;;;;;;;;;5093274;28;20451;-73